sensor_id;sensor_type;location;lat;lon;timestamp;temperature;humidity
9939;DHT22;5008;50.656;7.188;2024-02-26T05:01:29;7.80;99.90
9939;DHT22;5008;50.656;7.188;2024-02-26T05:03:56;7.70;99.90
9939;DHT22;5008;50.656;7.188;2024-02-26T05:06:23;7.80;99.90
9939;DHT22;5008;50.656;7.188;2024-02-26T05:08:49;7.80;99.90
9939;DHT22;5008;50.656;7.188;2024-02-26T05:11:16;7.80;99.90
9939;DHT22;5008;50.656;7.188;2024-02-26T05:13:43;7.90;99.90
9939;DHT22;5008;50.656;7.188;2024-02-26T05:16:10;7.80;99.90
9939;DHT22;5008;50.656;7.188;2024-02-26T05:18:39;7.80;99.90
9939;DHT22;5008;50.656;7.188;2024-02-26T05:21:05;7.80;99.90
9939;DHT22;5008;50.656;7.188;2024-02-26T05:23:32;7.80;99.90
9939;DHT22;5008;50.656;7.188;2024-02-26T05:25:59;7.80;99.90
9939;DHT22;5008;50.656;7.188;2024-02-26T05:28:26;7.80;99.90
9939;DHT22;5008;50.656;7.188;2024-02-26T05:30:52;7.80;99.90
9939;DHT22;5008;50.656;7.188;2024-02-26T05:33:19;7.80;99.90
9939;DHT22;5008;50.656;7.188;2024-02-26T05:35:47;7.80;99.90
9939;DHT22;5008;50.656;7.188;2024-02-26T05:38:14;7.80;99.90
9939;DHT22;5008;50.656;7.188;2024-02-26T05:40:41;7.80;99.90
9939;DHT22;5008;50.656;7.188;2024-02-26T05:43:08;7.80;99.90
9939;DHT22;5008;50.656;7.188;2024-02-26T05:45:36;7.80;99.90
9939;DHT22;5008;50.656;7.188;2024-02-26T05:48:04;7.80;99.90
9939;DHT22;5008;50.656;7.188;2024-02-26T05:50:31;7.80;99.90
9939;DHT22;5008;50.656;7.188;2024-02-26T05:52:59;7.80;99.90
9939;DHT22;5008;50.656;7.188;2024-02-26T05:55:26;7.80;99.90
9939;DHT22;5008;50.656;7.188;2024-02-26T05:57:53;7.80;99.90
9939;DHT22;5008;50.656;7.188;2024-02-26T06:00:20;7.90;99.90
9939;DHT22;5008;50.656;7.188;2024-02-26T06:02:47;7.80;99.90
9939;DHT22;5008;50.656;7.188;2024-02-26T06:05:14;7.80;99.90
9939;DHT22;5008;50.656;7.188;2024-02-26T06:07:40;7.70;99.90
9939;DHT22;5008;50.656;7.188;2024-02-26T06:10:09;7.80;99.90
9939;DHT22;5008;50.656;7.188;2024-02-26T06:12:36;7.70;99.90
9939;DHT22;5008;50.656;7.188;2024-02-26T06:15:04;7.70;99.90
9939;DHT22;5008;50.656;7.188;2024-02-26T06:17:30;7.70;99.90
9939;DHT22;5008;50.656;7.188;2024-02-26T06:19:57;7.70;99.90
9939;DHT22;5008;50.656;7.188;2024-02-26T06:22:34;7.70;99.90
9939;DHT22;5008;50.656;7.188;2024-02-26T06:25:01;7.80;99.90
9939;DHT22;5008;50.656;7.188;2024-02-26T06:27:29;7.80;99.90
9939;DHT22;5008;50.656;7.188;2024-02-26T06:29:56;7.90;99.90
9939;DHT22;5008;50.656;7.188;2024-02-26T06:32:29;7.80;99.90
9939;DHT22;5008;50.656;7.188;2024-02-26T06:34:56;7.80;99.90
9939;DHT22;5008;50.656;7.188;2024-02-26T06:37:23;7.80;99.90
9939;DHT22;5008;50.656;7.188;2024-02-26T06:39:50;7.80;99.90
9939;DHT22;5008;50.656;7.188;2024-02-26T06:42:18;7.80;99.90
9939;DHT22;5008;50.656;7.188;2024-02-26T06:44:46;7.80;99.90
9939;DHT22;5008;50.656;7.188;2024-02-26T06:47:13;7.80;99.90
9939;DHT22;5008;50.656;7.188;2024-02-26T06:49:39;7.90;99.90
9939;DHT22;5008;50.656;7.188;2024-02-26T06:52:06;7.90;99.90
9939;DHT22;5008;50.656;7.188;2024-02-26T06:54:33;7.90;99.90
9939;DHT22;5008;50.656;7.188;2024-02-26T06:57:00;7.80;99.90
9939;DHT22;5008;50.656;7.188;2024-02-26T06:59:27;7.70;99.90
9939;DHT22;5008;50.656;7.188;2024-02-26T07:01:56;7.80;99.90
9939;DHT22;5008;50.656;7.188;2024-02-26T07:04:23;7.80;99.90
9939;DHT22;5008;50.656;7.188;2024-02-26T07:06:49;7.80;99.90
9939;DHT22;5008;50.656;7.188;2024-02-26T07:09:16;7.70;99.90
9939;DHT22;5008;50.656;7.188;2024-02-26T07:11:43;7.70;99.90
9939;DHT22;5008;50.656;7.188;2024-02-26T07:14:11;7.80;99.90
9939;DHT22;5008;50.656;7.188;2024-02-26T07:16:38;7.90;99.90
9939;DHT22;5008;50.656;7.188;2024-02-26T07:19:06;7.80;99.90
9939;DHT22;5008;50.656;7.188;2024-02-26T07:21:35;7.90;99.90
9939;DHT22;5008;50.656;7.188;2024-02-26T07:24:02;7.90;99.90
9939;DHT22;5008;50.656;7.188;2024-02-26T07:26:29;7.90;99.90
9939;DHT22;5008;50.656;7.188;2024-02-26T07:28:56;7.90;99.90
9939;DHT22;5008;50.656;7.188;2024-02-26T07:31:23;7.90;99.90
9939;DHT22;5008;50.656;7.188;2024-02-26T07:33:50;7.90;99.90
9939;DHT22;5008;50.656;7.188;2024-02-26T07:36:18;7.90;99.90
9939;DHT22;5008;50.656;7.188;2024-02-26T07:38:45;8.00;99.90
9939;DHT22;5008;50.656;7.188;2024-02-26T07:41:12;8.00;99.90
9939;DHT22;5008;50.656;7.188;2024-02-26T07:43:39;7.90;99.90
9939;DHT22;5008;50.656;7.188;2024-02-26T07:46:06;7.80;99.90
9939;DHT22;5008;50.656;7.188;2024-02-26T07:48:33;7.90;99.90
9939;DHT22;5008;50.656;7.188;2024-02-26T07:51:00;7.90;99.90
9939;DHT22;5008;50.656;7.188;2024-02-26T07:53:30;7.90;99.90
9939;DHT22;5008;50.656;7.188;2024-02-26T07:55:57;8.00;99.90
9939;DHT22;5008;50.656;7.188;2024-02-26T07:58:24;8.00;99.90
9939;DHT22;5008;50.656;7.188;2024-02-26T08:00:50;8.00;99.90
9939;DHT22;5008;50.656;7.188;2024-02-26T08:03:17;8.00;99.90
9939;DHT22;5008;50.656;7.188;2024-02-26T08:05:44;7.90;99.90
9939;DHT22;5008;50.656;7.188;2024-02-26T08:08:11;7.90;99.90
9939;DHT22;5008;50.656;7.188;2024-02-26T08:10:39;8.00;99.90
9939;DHT22;5008;50.656;7.188;2024-02-26T08:13:07;8.00;99.90
9939;DHT22;5008;50.656;7.188;2024-02-26T08:15:37;8.00;99.90
9939;DHT22;5008;50.656;7.188;2024-02-26T08:18:05;7.90;99.90
9939;DHT22;5008;50.656;7.188;2024-02-26T08:20:32;7.90;99.90
9939;DHT22;5008;50.656;7.188;2024-02-26T08:22:58;7.90;99.90
9939;DHT22;5008;50.656;7.188;2024-02-26T08:25:25;7.90;99.90
9939;DHT22;5008;50.656;7.188;2024-02-26T08:27:53;7.90;99.90
9939;DHT22;5008;50.656;7.188;2024-02-26T08:30:20;8.00;99.90
9939;DHT22;5008;50.656;7.188;2024-02-26T08:32:47;8.00;99.90
9939;DHT22;5008;50.656;7.188;2024-02-26T08:35:14;7.90;99.90
9939;DHT22;5008;50.656;7.188;2024-02-26T08:37:44;7.90;99.90
9939;DHT22;5008;50.656;7.188;2024-02-26T08:40:11;7.90;99.90
9939;DHT22;5008;50.656;7.188;2024-02-26T08:42:38;7.90;99.90
9939;DHT22;5008;50.656;7.188;2024-02-26T08:45:07;7.90;99.90
9939;DHT22;5008;50.656;7.188;2024-02-26T08:47:34;7.90;99.90
9939;DHT22;5008;50.656;7.188;2024-02-26T08:50:01;8.00;99.90
9939;DHT22;5008;50.656;7.188;2024-02-26T08:52:27;8.10;99.90
9939;DHT22;5008;50.656;7.188;2024-02-26T08:54:53;8.00;99.90
9939;DHT22;5008;50.656;7.188;2024-02-26T08:57:20;8.00;99.90
9939;DHT22;5008;50.656;7.188;2024-02-26T08:59:47;8.00;99.90
9939;DHT22;5008;50.656;7.188;2024-02-26T09:02:15;8.00;99.90
9939;DHT22;5008;50.656;7.188;2024-02-26T09:04:42;8.10;99.90
9939;DHT22;5008;50.656;7.188;2024-02-26T09:07:09;8.10;99.90
9939;DHT22;5008;50.656;7.188;2024-02-26T09:09:36;8.20;99.90
9939;DHT22;5008;50.656;7.188;2024-02-26T09:12:03;8.20;99.90
9939;DHT22;5008;50.656;7.188;2024-02-26T09:14:30;8.20;99.90
9939;DHT22;5008;50.656;7.188;2024-02-26T09:16:57;8.10;99.90
9939;DHT22;5008;50.656;7.188;2024-02-26T09:19:26;8.20;99.90
9939;DHT22;5008;50.656;7.188;2024-02-26T09:21:53;8.30;99.90
9939;DHT22;5008;50.656;7.188;2024-02-26T09:24:22;8.30;99.90
9939;DHT22;5008;50.656;7.188;2024-02-26T09:26:49;8.30;99.90
9939;DHT22;5008;50.656;7.188;2024-02-26T09:29:16;8.30;99.90
9939;DHT22;5008;50.656;7.188;2024-02-26T09:31:43;8.40;99.90
9939;DHT22;5008;50.656;7.188;2024-02-26T09:34:12;8.40;99.90
9939;DHT22;5008;50.656;7.188;2024-02-26T09:36:41;8.50;99.90
9939;DHT22;5008;50.656;7.188;2024-02-26T09:39:08;8.50;99.90
9939;DHT22;5008;50.656;7.188;2024-02-26T09:41:37;8.60;99.90
9939;DHT22;5008;50.656;7.188;2024-02-26T09:44:05;8.60;99.90
9939;DHT22;5008;50.656;7.188;2024-02-26T09:46:33;8.60;99.90
9939;DHT22;5008;50.656;7.188;2024-02-26T09:49:00;8.60;99.90
9939;DHT22;5008;50.656;7.188;2024-02-26T09:51:28;8.60;99.90
9939;DHT22;5008;50.656;7.188;2024-02-26T09:53:59;8.60;99.90
9939;DHT22;5008;50.656;7.188;2024-02-26T09:56:26;8.60;99.90
9939;DHT22;5008;50.656;7.188;2024-02-26T09:58:56;8.60;99.90
9939;DHT22;5008;50.656;7.188;2024-02-26T10:01:24;8.70;99.90
9939;DHT22;5008;50.656;7.188;2024-02-26T10:03:55;8.70;99.90
9939;DHT22;5008;50.656;7.188;2024-02-26T10:06:24;8.80;99.90
9939;DHT22;5008;50.656;7.188;2024-02-26T10:08:51;8.90;99.90
9939;DHT22;5008;50.656;7.188;2024-02-26T10:11:22;9.00;99.90
9939;DHT22;5008;50.656;7.188;2024-02-26T10:13:48;9.10;99.90
9939;DHT22;5008;50.656;7.188;2024-02-26T10:16:16;9.10;99.90
9939;DHT22;5008;50.656;7.188;2024-02-26T10:18:46;9.20;99.90
9939;DHT22;5008;50.656;7.188;2024-02-26T10:21:16;9.30;99.90
9939;DHT22;5008;50.656;7.188;2024-02-26T10:23:43;9.30;99.90
9939;DHT22;5008;50.656;7.188;2024-02-26T10:26:10;9.30;99.90
9939;DHT22;5008;50.656;7.188;2024-02-26T10:28:39;9.40;99.90
9939;DHT22;5008;50.656;7.188;2024-02-26T10:31:06;9.30;99.90
9939;DHT22;5008;50.656;7.188;2024-02-26T10:33:33;9.20;99.90
9939;DHT22;5008;50.656;7.188;2024-02-26T10:36:01;9.20;99.90
9939;DHT22;5008;50.656;7.188;2024-02-26T10:38:29;9.20;99.90
9939;DHT22;5008;50.656;7.188;2024-02-26T10:40:56;9.30;99.90
9939;DHT22;5008;50.656;7.188;2024-02-26T10:43:22;9.30;99.90
9939;DHT22;5008;50.656;7.188;2024-02-26T10:45:51;9.30;99.90
9939;DHT22;5008;50.656;7.188;2024-02-26T10:48:18;9.40;99.90
9939;DHT22;5008;50.656;7.188;2024-02-26T10:50:46;9.40;99.90
9939;DHT22;5008;50.656;7.188;2024-02-26T10:53:16;9.30;99.90
9939;DHT22;5008;50.656;7.188;2024-02-26T10:55:49;9.30;99.90
9939;DHT22;5008;50.656;7.188;2024-02-26T10:58:16;9.30;99.90
9939;DHT22;5008;50.656;7.188;2024-02-26T11:00:44;9.40;99.90
9939;DHT22;5008;50.656;7.188;2024-02-26T11:03:14;9.50;99.90
9939;DHT22;5008;50.656;7.188;2024-02-26T11:05:43;9.50;99.90
9939;DHT22;5008;50.656;7.188;2024-02-26T11:08:11;9.50;99.90
9939;DHT22;5008;50.656;7.188;2024-02-26T11:10:38;9.50;99.90
9939;DHT22;5008;50.656;7.188;2024-02-26T11:13:06;9.50;99.90
9939;DHT22;5008;50.656;7.188;2024-02-26T11:15:36;9.40;99.90
9939;DHT22;5008;50.656;7.188;2024-02-26T11:18:04;9.30;99.90
9939;DHT22;5008;50.656;7.188;2024-02-26T11:20:33;9.20;99.90
9939;DHT22;5008;50.656;7.188;2024-02-26T11:23:01;9.20;99.90
9939;DHT22;5008;50.656;7.188;2024-02-26T11:25:27;9.20;99.90
9939;DHT22;5008;50.656;7.188;2024-02-26T11:27:57;9.20;99.90
9939;DHT22;5008;50.656;7.188;2024-02-26T11:30:26;9.10;99.90
9939;DHT22;5008;50.656;7.188;2024-02-26T11:32:55;9.10;99.90
9939;DHT22;5008;50.656;7.188;2024-02-26T11:35:22;9.10;99.90
9939;DHT22;5008;50.656;7.188;2024-02-26T11:37:57;9.10;99.90
9939;DHT22;5008;50.656;7.188;2024-02-26T11:40:26;9.10;99.90
9939;DHT22;5008;50.656;7.188;2024-02-26T11:42:54;9.10;99.90
9939;DHT22;5008;50.656;7.188;2024-02-26T11:45:49;9.10;99.90
9939;DHT22;5008;50.656;7.188;2024-02-26T11:48:20;9.10;99.90
9939;DHT22;5008;50.656;7.188;2024-02-26T11:50:48;9.20;99.90
9939;DHT22;5008;50.656;7.188;2024-02-26T11:53:25;9.10;99.90
9939;DHT22;5008;50.656;7.188;2024-02-26T11:56:13;9.20;99.90
9939;DHT22;5008;50.656;7.188;2024-02-26T11:58:40;9.20;99.90
9939;DHT22;5008;50.656;7.188;2024-02-26T12:01:37;9.30;99.90
9939;DHT22;5008;50.656;7.188;2024-02-26T12:04:05;9.30;99.90
9939;DHT22;5008;50.656;7.188;2024-02-26T12:06:43;9.40;99.90
9939;DHT22;5008;50.656;7.188;2024-02-26T12:09:12;9.40;99.90
9939;DHT22;5008;50.656;7.188;2024-02-26T12:11:40;9.50;99.90
9939;DHT22;5008;50.656;7.188;2024-02-26T12:14:09;9.60;99.90
9939;DHT22;5008;50.656;7.188;2024-02-26T12:16:36;9.50;99.90
9939;DHT22;5008;50.656;7.188;2024-02-26T12:19:04;9.60;99.90
9939;DHT22;5008;50.656;7.188;2024-02-26T12:21:33;9.60;99.90
9939;DHT22;5008;50.656;7.188;2024-02-26T12:24:12;9.60;99.90
9939;DHT22;5008;50.656;7.188;2024-02-26T12:26:40;9.70;99.90
9939;DHT22;5008;50.656;7.188;2024-02-26T12:29:08;9.60;99.90
9939;DHT22;5008;50.656;7.188;2024-02-26T12:31:35;9.50;99.90
9939;DHT22;5008;50.656;7.188;2024-02-26T12:34:03;9.50;99.90
9939;DHT22;5008;50.656;7.188;2024-02-26T12:36:29;9.40;99.90
9939;DHT22;5008;50.656;7.188;2024-02-26T12:38:56;9.40;99.90
9939;DHT22;5008;50.656;7.188;2024-02-26T12:41:25;9.30;99.90
9939;DHT22;5008;50.656;7.188;2024-02-26T12:43:53;9.40;99.90
9939;DHT22;5008;50.656;7.188;2024-02-26T12:46:20;9.30;99.90
9939;DHT22;5008;50.656;7.188;2024-02-26T12:48:47;9.30;99.90
9939;DHT22;5008;50.656;7.188;2024-02-26T12:51:15;9.30;99.90
9939;DHT22;5008;50.656;7.188;2024-02-26T12:53:43;9.30;99.90
9939;DHT22;5008;50.656;7.188;2024-02-26T12:56:10;9.40;99.90
9939;DHT22;5008;50.656;7.188;2024-02-26T12:58:39;9.50;99.90
9939;DHT22;5008;50.656;7.188;2024-02-26T13:01:07;9.40;99.90
9939;DHT22;5008;50.656;7.188;2024-02-26T13:03:35;9.30;99.90
9939;DHT22;5008;50.656;7.188;2024-02-26T13:06:03;9.30;99.90
9939;DHT22;5008;50.656;7.188;2024-02-26T13:08:32;9.30;99.90
9939;DHT22;5008;50.656;7.188;2024-02-26T13:11:01;9.40;99.90
9939;DHT22;5008;50.656;7.188;2024-02-26T13:13:28;9.40;99.90
9939;DHT22;5008;50.656;7.188;2024-02-26T13:16:03;9.30;99.90
9939;DHT22;5008;50.656;7.188;2024-02-26T13:18:32;9.20;99.90
9939;DHT22;5008;50.656;7.188;2024-02-26T13:21:09;9.10;99.90
9939;DHT22;5008;50.656;7.188;2024-02-26T13:23:37;9.10;99.90
9939;DHT22;5008;50.656;7.188;2024-02-26T13:26:05;9.00;99.90
9939;DHT22;5008;50.656;7.188;2024-02-26T13:28:32;9.00;99.90
9939;DHT22;5008;50.656;7.188;2024-02-26T13:30:59;9.10;99.90
9939;DHT22;5008;50.656;7.188;2024-02-26T13:33:29;9.10;99.90
9939;DHT22;5008;50.656;7.188;2024-02-26T13:35:56;9.20;99.90
9939;DHT22;5008;50.656;7.188;2024-02-26T13:38:23;9.10;99.90
9939;DHT22;5008;50.656;7.188;2024-02-26T13:40:51;9.10;99.90
9939;DHT22;5008;50.656;7.188;2024-02-26T13:43:18;9.10;99.90
9939;DHT22;5008;50.656;7.188;2024-02-26T13:45:45;9.00;99.90
9939;DHT22;5008;50.656;7.188;2024-02-26T13:48:12;9.10;99.90
9939;DHT22;5008;50.656;7.188;2024-02-26T13:50:41;9.10;99.90
9939;DHT22;5008;50.656;7.188;2024-02-26T13:53:10;9.10;99.90
9939;DHT22;5008;50.656;7.188;2024-02-26T13:55:37;9.10;99.90
9939;DHT22;5008;50.656;7.188;2024-02-26T13:58:05;9.10;99.90
9939;DHT22;5008;50.656;7.188;2024-02-26T14:00:32;9.10;99.90
9939;DHT22;5008;50.656;7.188;2024-02-26T14:03:00;9.20;99.90
9939;DHT22;5008;50.656;7.188;2024-02-26T14:05:27;9.20;99.90
9939;DHT22;5008;50.656;7.188;2024-02-26T14:07:56;9.10;99.90
9939;DHT22;5008;50.656;7.188;2024-02-26T14:10:23;9.10;99.90
9939;DHT22;5008;50.656;7.188;2024-02-26T14:12:49;9.20;99.90
9939;DHT22;5008;50.656;7.188;2024-02-26T14:15:16;9.20;99.90
9939;DHT22;5008;50.656;7.188;2024-02-26T14:17:43;9.20;99.90
9939;DHT22;5008;50.656;7.188;2024-02-26T14:20:11;9.10;99.90
9939;DHT22;5008;50.656;7.188;2024-02-26T14:22:38;9.20;99.90
9939;DHT22;5008;50.656;7.188;2024-02-26T14:25:07;9.20;99.90
9939;DHT22;5008;50.656;7.188;2024-02-26T14:27:34;9.20;99.90
9939;DHT22;5008;50.656;7.188;2024-02-26T14:30:01;9.20;99.90
9939;DHT22;5008;50.656;7.188;2024-02-26T14:32:28;9.20;99.90
9939;DHT22;5008;50.656;7.188;2024-02-26T14:34:56;9.20;99.90
9939;DHT22;5008;50.656;7.188;2024-02-26T14:37:23;9.10;99.90
9939;DHT22;5008;50.656;7.188;2024-02-26T14:39:50;9.10;99.90
9939;DHT22;5008;50.656;7.188;2024-02-26T14:42:19;9.20;99.90
9939;DHT22;5008;50.656;7.188;2024-02-26T14:44:46;9.10;99.90
9939;DHT22;5008;50.656;7.188;2024-02-26T14:47:13;9.20;99.90
9939;DHT22;5008;50.656;7.188;2024-02-26T14:49:40;9.10;99.90
9939;DHT22;5008;50.656;7.188;2024-02-26T14:52:07;9.20;99.90
9939;DHT22;5008;50.656;7.188;2024-02-26T14:54:33;9.20;99.90
9939;DHT22;5008;50.656;7.188;2024-02-26T14:57:04;9.20;99.90
9939;DHT22;5008;50.656;7.188;2024-02-26T14:59:33;9.20;99.90
9939;DHT22;5008;50.656;7.188;2024-02-26T15:02:02;9.10;99.90
9939;DHT22;5008;50.656;7.188;2024-02-26T15:04:28;9.10;99.90
9939;DHT22;5008;50.656;7.188;2024-02-26T15:06:55;9.10;99.90
9939;DHT22;5008;50.656;7.188;2024-02-26T15:09:22;9.00;99.90
9939;DHT22;5008;50.656;7.188;2024-02-26T15:11:49;9.00;99.90
9939;DHT22;5008;50.656;7.188;2024-02-26T15:14:15;9.00;99.90
9939;DHT22;5008;50.656;7.188;2024-02-26T15:16:44;9.00;99.90
9939;DHT22;5008;50.656;7.188;2024-02-26T15:19:11;9.00;99.90
9939;DHT22;5008;50.656;7.188;2024-02-26T15:21:43;9.10;99.90
9939;DHT22;5008;50.656;7.188;2024-02-26T15:24:10;9.10;99.90
9939;DHT22;5008;50.656;7.188;2024-02-26T15:26:37;9.00;99.90
9939;DHT22;5008;50.656;7.188;2024-02-26T15:29:05;9.00;99.90
9939;DHT22;5008;50.656;7.188;2024-02-26T15:31:38;9.10;99.90
9939;DHT22;5008;50.656;7.188;2024-02-26T15:34:06;9.10;99.90
9939;DHT22;5008;50.656;7.188;2024-02-26T15:36:34;9.10;99.90
9939;DHT22;5008;50.656;7.188;2024-02-26T15:39:01;9.00;99.90
9939;DHT22;5008;50.656;7.188;2024-02-26T15:41:28;9.00;99.90
9939;DHT22;5008;50.656;7.188;2024-02-26T15:43:55;9.00;99.90
9939;DHT22;5008;50.656;7.188;2024-02-26T15:46:22;9.00;99.90
9939;DHT22;5008;50.656;7.188;2024-02-26T15:48:48;9.10;99.90
9939;DHT22;5008;50.656;7.188;2024-02-26T15:51:36;9.10;99.90
9939;DHT22;5008;50.656;7.188;2024-02-26T15:54:02;9.10;99.90
9939;DHT22;5008;50.656;7.188;2024-02-26T15:56:29;9.00;99.90
9939;DHT22;5008;50.656;7.188;2024-02-26T15:58:57;9.00;99.90
9939;DHT22;5008;50.656;7.188;2024-02-26T16:01:24;9.00;99.90
9939;DHT22;5008;50.656;7.188;2024-02-26T16:03:51;9.10;99.90
9939;DHT22;5008;50.656;7.188;2024-02-26T16:06:22;9.00;99.90
9939;DHT22;5008;50.656;7.188;2024-02-26T16:08:53;9.10;99.90
9939;DHT22;5008;50.656;7.188;2024-02-26T16:11:20;9.00;99.90
9939;DHT22;5008;50.656;7.188;2024-02-26T16:13:53;9.00;99.90
9939;DHT22;5008;50.656;7.188;2024-02-26T16:16:29;9.00;99.90
9939;DHT22;5008;50.656;7.188;2024-02-26T16:19:05;9.00;99.90
9939;DHT22;5008;50.656;7.188;2024-02-26T16:21:32;8.90;99.90
9939;DHT22;5008;50.656;7.188;2024-02-26T16:24:00;8.90;99.90
9939;DHT22;5008;50.656;7.188;2024-02-26T16:26:27;8.80;99.90
9939;DHT22;5008;50.656;7.188;2024-02-26T16:28:53;8.80;99.90
9939;DHT22;5008;50.656;7.188;2024-02-26T16:31:20;8.80;99.90
9939;DHT22;5008;50.656;7.188;2024-02-26T16:33:47;8.80;99.90
9939;DHT22;5008;50.656;7.188;2024-02-26T16:36:14;8.80;99.90
9939;DHT22;5008;50.656;7.188;2024-02-26T16:38:41;8.70;99.90
9939;DHT22;5008;50.656;7.188;2024-02-26T16:41:09;8.70;99.90
9939;DHT22;5008;50.656;7.188;2024-02-26T16:43:35;8.70;99.90
9939;DHT22;5008;50.656;7.188;2024-02-26T16:46:03;8.80;99.90
9939;DHT22;5008;50.656;7.188;2024-02-26T16:48:34;8.70;99.90
9939;DHT22;5008;50.656;7.188;2024-02-26T16:51:01;8.70;99.90
9939;DHT22;5008;50.656;7.188;2024-02-26T16:53:28;8.70;99.90
9939;DHT22;5008;50.656;7.188;2024-02-26T16:55:55;8.60;99.90
9939;DHT22;5008;50.656;7.188;2024-02-26T16:58:24;8.70;99.90
9939;DHT22;5008;50.656;7.188;2024-02-26T17:01:19;8.70;99.90
9939;DHT22;5008;50.656;7.188;2024-02-26T17:03:46;8.70;99.90
9939;DHT22;5008;50.656;7.188;2024-02-26T17:06:12;8.70;99.90
9939;DHT22;5008;50.656;7.188;2024-02-26T17:08:40;8.70;99.90
9939;DHT22;5008;50.656;7.188;2024-02-26T17:11:07;8.70;99.90
9939;DHT22;5008;50.656;7.188;2024-02-26T17:13:35;8.70;99.90
9939;DHT22;5008;50.656;7.188;2024-02-26T17:16:02;8.70;99.90
9939;DHT22;5008;50.656;7.188;2024-02-26T17:18:29;8.70;99.90
9939;DHT22;5008;50.656;7.188;2024-02-26T17:20:56;8.70;99.90
9939;DHT22;5008;50.656;7.188;2024-02-26T17:23:24;8.70;99.90
9939;DHT22;5008;50.656;7.188;2024-02-26T17:25:51;8.70;99.90
9939;DHT22;5008;50.656;7.188;2024-02-26T17:28:24;8.70;99.90
9939;DHT22;5008;50.656;7.188;2024-02-26T17:30:52;8.60;99.90
9939;DHT22;5008;50.656;7.188;2024-02-26T17:33:19;8.70;99.90
9939;DHT22;5008;50.656;7.188;2024-02-26T17:35:46;8.60;99.90
9939;DHT22;5008;50.656;7.188;2024-02-26T17:38:23;8.60;99.90
9939;DHT22;5008;50.656;7.188;2024-02-26T17:40:50;8.60;99.90
9939;DHT22;5008;50.656;7.188;2024-02-26T17:43:17;8.60;99.90
9939;DHT22;5008;50.656;7.188;2024-02-26T17:45:44;8.60;99.90
9939;DHT22;5008;50.656;7.188;2024-02-26T17:48:13;8.60;99.90
9939;DHT22;5008;50.656;7.188;2024-02-26T17:50:40;8.60;99.90
9939;DHT22;5008;50.656;7.188;2024-02-26T17:53:07;8.50;99.90
9939;DHT22;5008;50.656;7.188;2024-02-26T17:55:38;8.50;99.90
9939;DHT22;5008;50.656;7.188;2024-02-26T17:58:05;8.50;99.90
9939;DHT22;5008;50.656;7.188;2024-02-26T18:00:32;8.50;99.90
9939;DHT22;5008;50.656;7.188;2024-02-26T18:02:59;8.60;99.90
9939;DHT22;5008;50.656;7.188;2024-02-26T18:05:27;8.50;99.90
9939;DHT22;5008;50.656;7.188;2024-02-26T18:07:54;8.60;99.90
9939;DHT22;5008;50.656;7.188;2024-02-26T18:10:21;8.60;99.90
9939;DHT22;5008;50.656;7.188;2024-02-26T18:12:49;8.60;99.90
9939;DHT22;5008;50.656;7.188;2024-02-26T18:15:15;8.60;99.90
9939;DHT22;5008;50.656;7.188;2024-02-26T18:17:42;8.60;99.90
9939;DHT22;5008;50.656;7.188;2024-02-26T18:20:10;8.60;99.90
9939;DHT22;5008;50.656;7.188;2024-02-26T18:22:38;8.60;99.90
9939;DHT22;5008;50.656;7.188;2024-02-26T18:25:06;8.50;99.90
9939;DHT22;5008;50.656;7.188;2024-02-26T18:27:33;8.50;99.90
9939;DHT22;5008;50.656;7.188;2024-02-26T18:30:01;8.50;99.90
9939;DHT22;5008;50.656;7.188;2024-02-26T18:32:28;8.50;99.90
9939;DHT22;5008;50.656;7.188;2024-02-26T18:34:55;8.60;99.90
9939;DHT22;5008;50.656;7.188;2024-02-26T18:37:22;8.50;99.90
9939;DHT22;5008;50.656;7.188;2024-02-26T18:39:50;8.40;99.90
9939;DHT22;5008;50.656;7.188;2024-02-26T18:42:18;8.50;99.90
9939;DHT22;5008;50.656;7.188;2024-02-26T18:44:45;8.50;99.90
9939;DHT22;5008;50.656;7.188;2024-02-26T18:47:12;8.50;99.90
9939;DHT22;5008;50.656;7.188;2024-02-26T18:49:39;8.50;99.90
9939;DHT22;5008;50.656;7.188;2024-02-26T18:52:07;8.40;99.90
9939;DHT22;5008;50.656;7.188;2024-02-26T18:54:34;8.50;99.90
9939;DHT22;5008;50.656;7.188;2024-02-26T18:57:05;8.50;99.90
9939;DHT22;5008;50.656;7.188;2024-02-26T18:59:34;8.50;99.90
9939;DHT22;5008;50.656;7.188;2024-02-26T19:02:02;8.50;99.90
9939;DHT22;5008;50.656;7.188;2024-02-26T19:04:29;8.40;99.90
9939;DHT22;5008;50.656;7.188;2024-02-26T19:06:56;8.50;99.90
9939;DHT22;5008;50.656;7.188;2024-02-26T19:09:23;8.40;99.90
9939;DHT22;5008;50.656;7.188;2024-02-26T19:11:50;8.40;99.90
9939;DHT22;5008;50.656;7.188;2024-02-26T19:14:20;8.40;99.90
9939;DHT22;5008;50.656;7.188;2024-02-26T19:16:47;8.40;99.90
9939;DHT22;5008;50.656;7.188;2024-02-26T19:19:16;8.30;99.90
9939;DHT22;5008;50.656;7.188;2024-02-26T19:21:43;8.30;99.90
9939;DHT22;5008;50.656;7.188;2024-02-26T19:24:10;8.30;99.90
9939;DHT22;5008;50.656;7.188;2024-02-26T19:26:40;8.30;99.90
9939;DHT22;5008;50.656;7.188;2024-02-26T19:29:07;8.30;99.90
9939;DHT22;5008;50.656;7.188;2024-02-26T19:31:36;8.30;99.90
9939;DHT22;5008;50.656;7.188;2024-02-26T19:34:03;8.30;99.90
9939;DHT22;5008;50.656;7.188;2024-02-26T19:36:34;8.40;99.90
9939;DHT22;5008;50.656;7.188;2024-02-26T19:39:00;8.40;99.90
9939;DHT22;5008;50.656;7.188;2024-02-26T19:41:28;8.40;99.90
9939;DHT22;5008;50.656;7.188;2024-02-26T19:43:54;8.40;99.90
9939;DHT22;5008;50.656;7.188;2024-02-26T19:46:21;8.40;99.90
9939;DHT22;5008;50.656;7.188;2024-02-26T19:48:57;8.40;99.90
9939;DHT22;5008;50.656;7.188;2024-02-26T19:51:26;8.40;99.90
9939;DHT22;5008;50.656;7.188;2024-02-26T19:53:53;8.30;99.90
9939;DHT22;5008;50.656;7.188;2024-02-26T19:56:20;8.30;99.90
9939;DHT22;5008;50.656;7.188;2024-02-26T19:58:46;8.30;99.90
9939;DHT22;5008;50.656;7.188;2024-02-26T20:01:13;8.30;99.90
9939;DHT22;5008;50.656;7.188;2024-02-26T20:03:40;8.40;99.90
9939;DHT22;5008;50.656;7.188;2024-02-26T20:06:11;8.30;99.90
9939;DHT22;5008;50.656;7.188;2024-02-26T20:08:38;8.30;99.90
9939;DHT22;5008;50.656;7.188;2024-02-26T20:11:06;8.30;99.90
9939;DHT22;5008;50.656;7.188;2024-02-26T20:13:33;8.40;99.90
9939;DHT22;5008;50.656;7.188;2024-02-26T20:16:00;8.40;99.90
9939;DHT22;5008;50.656;7.188;2024-02-26T20:18:25;8.40;99.90
9939;DHT22;5008;50.656;7.188;2024-02-26T20:20:52;8.40;99.90
9939;DHT22;5008;50.656;7.188;2024-02-26T20:23:20;8.40;99.90
9939;DHT22;5008;50.656;7.188;2024-02-26T20:25:47;8.40;99.90
9939;DHT22;5008;50.656;7.188;2024-02-26T20:28:14;8.40;99.90
9939;DHT22;5008;50.656;7.188;2024-02-26T20:30:42;8.40;99.90
9939;DHT22;5008;50.656;7.188;2024-02-26T20:33:09;8.40;99.90
9939;DHT22;5008;50.656;7.188;2024-02-26T20:35:36;8.40;99.90
9939;DHT22;5008;50.656;7.188;2024-02-26T20:38:03;8.50;99.90
9939;DHT22;5008;50.656;7.188;2024-02-26T20:40:31;8.50;99.90
9939;DHT22;5008;50.656;7.188;2024-02-26T20:42:58;8.50;99.90
9939;DHT22;5008;50.656;7.188;2024-02-26T20:45:25;8.40;99.90
9939;DHT22;5008;50.656;7.188;2024-02-26T20:47:52;8.30;99.90
9939;DHT22;5008;50.656;7.188;2024-02-26T20:50:19;8.20;99.90
9939;DHT22;5008;50.656;7.188;2024-02-26T20:52:46;8.20;99.90
9939;DHT22;5008;50.656;7.188;2024-02-26T20:55:13;8.20;99.90
9939;DHT22;5008;50.656;7.188;2024-02-26T20:57:42;8.20;99.90
9939;DHT22;5008;50.656;7.188;2024-02-26T21:00:10;8.20;99.90
9939;DHT22;5008;50.656;7.188;2024-02-26T21:02:38;8.20;99.90
9939;DHT22;5008;50.656;7.188;2024-02-26T21:05:05;8.20;99.90
9939;DHT22;5008;50.656;7.188;2024-02-26T21:07:32;8.20;99.90
9939;DHT22;5008;50.656;7.188;2024-02-26T21:09:59;8.20;99.90
9939;DHT22;5008;50.656;7.188;2024-02-26T21:12:32;8.30;99.90
9939;DHT22;5008;50.656;7.188;2024-02-26T21:15:01;8.30;99.90
9939;DHT22;5008;50.656;7.188;2024-02-26T21:17:28;8.30;99.90
9939;DHT22;5008;50.656;7.188;2024-02-26T21:19:56;8.30;99.90
9939;DHT22;5008;50.656;7.188;2024-02-26T21:22:22;8.30;99.90